Time;durP1;ratioP1;P1;durP2;ratioP2;P2;SDS_P1;SDS_P2;PMS_P1;PMS_P2;Temp;Humidity;BMP_temperature;BMP_pressure;BME280_temperature;BME280_humidity;BME280_pressure;Samples;Min_cycle;Max_cycle;Signal;HPM_P1;HPM_P2
2020/12/23 00:01:09;;;;;;;2.53;2.33;;;;;;;8.61;84.21;100351.19;5048674;28;20201;-79
2020/12/23 00:03:35;;;;;;;3.03;2.70;;;;;;;8.55;85.24;100353.84;5058675;28;20233;-78
2020/12/23 00:06:02;;;;;;;2.40;2.20;;;;;;;8.54;84.72;100362.53;5062994;28;20232;-78
2020/12/23 00:08:28;;;;;;;2.57;2.37;;;;;;;8.53;84.77;100364.28;5059766;28;20204;-78
2020/12/23 00:10:53;;;;;;;3.53;2.53;;;;;;;8.52;84.81;100359.97;5072335;28;20195;-79
2020/12/23 00:13:19;;;;;;;2.67;2.47;;;;;;;8.57;84.73;100367.72;5069567;28;20277;-78
2020/12/23 00:15:45;;;;;;;2.50;2.30;;;;;;;8.54;84.78;100366.00;5064605;28;20213;-79
2020/12/23 00:18:11;;;;;;;8.57;2.90;;;;;;;8.58;84.39;100373.78;5074469;28;20260;-78
2020/12/23 00:20:37;;;;;;;2.50;2.30;;;;;;;8.58;84.71;100378.97;5070125;28;20184;-79
2020/12/23 00:23:04;;;;;;;4.93;2.93;;;;;;;8.50;84.92;100387.75;5079841;28;20233;-78
2020/12/23 00:25:29;;;;;;;2.80;2.60;;;;;;;8.46;85.32;100374.78;5078148;28;20189;-77
2020/12/23 00:27:55;;;;;;;3.00;2.70;;;;;;;8.48;85.35;100365.22;5071243;28;20195;-78
2020/12/23 00:30:21;;;;;;;3.27;2.30;;;;;;;8.52;84.97;100369.50;5074236;28;20204;-78
2020/12/23 00:32:47;;;;;;;4.23;2.70;;;;;;;8.52;85.48;100367.78;5074676;28;20217;-78
2020/12/23 00:35:13;;;;;;;5.60;2.90;;;;;;;8.59;85.09;100370.31;5068739;28;20225;-79
2020/12/23 00:37:39;;;;;;;3.37;3.07;;;;;;;8.54;85.27;100367.72;5059994;28;20591;-79
2020/12/23 00:40:06;;;;;;;4.70;3.73;;;;;;;8.59;84.87;100360.75;5052763;28;20200;-79
2020/12/23 00:42:32;;;;;;;3.90;3.60;;;;;;;8.52;84.83;100346.97;5051671;28;20222;-79
2020/12/23 00:44:58;;;;;;;3.70;3.40;;;;;;;8.59;84.60;100358.16;5054578;28;20322;-79
2020/12/23 00:47:24;;;;;;;3.43;3.07;;;;;;;8.63;84.79;100356.38;5060417;28;20228;-79
2020/12/23 00:49:50;;;;;;;3.03;2.83;;;;;;;8.69;84.29;100372.75;5056437;28;20215;-79
2020/12/23 00:52:16;;;;;;;3.60;3.30;;;;;;;8.71;84.12;100371.00;5059962;28;20224;-79
2020/12/23 00:54:42;;;;;;;3.50;3.20;;;;;;;8.62;84.51;100360.72;5059624;28;20262;-78
2020/12/23 00:57:09;;;;;;;4.13;3.73;;;;;;;8.57;84.97;100375.50;5055271;28;20298;-79
2020/12/23 00:59:35;;;;;;;5.00;3.23;;;;;;;8.61;85.20;100378.94;5051585;28;20586;-79
2020/12/23 01:02:02;;;;;;;4.30;3.47;;;;;;;8.51;85.74;100368.63;5051651;28;20280;-79
2020/12/23 01:04:28;;;;;;;3.63;3.33;;;;;;;8.55;85.75;100364.25;5058123;28;20229;-79
2020/12/23 01:06:54;;;;;;;4.17;3.17;;;;;;;8.58;85.64;100368.56;5056618;28;20204;-80
2020/12/23 01:09:21;;;;;;;4.00;3.07;;;;;;;8.52;85.33;100372.97;5047391;28;20255;-79
2020/12/23 01:11:47;;;;;;;3.00;2.80;;;;;;;8.48;85.65;100381.69;5050377;28;20224;-79
2020/12/23 01:14:15;;;;;;;4.10;3.33;;;;;;;8.52;85.57;100388.59;5049950;28;20310;-79
2020/12/23 01:16:41;;;;;;;3.47;2.93;;;;;;;8.60;85.24;100382.41;5049773;28;20580;-79
2020/12/23 01:19:07;;;;;;;3.63;3.37;;;;;;;8.70;84.72;100384.03;5051196;28;20204;-79
2020/12/23 01:21:33;;;;;;;3.90;3.60;;;;;;;8.71;84.61;100388.38;5049829;28;20229;-78
2020/12/23 01:23:58;;;;;;;4.50;4.10;;;;;;;8.63;84.86;100395.41;5049824;28;20259;-79
2020/12/23 01:26:24;;;;;;;4.53;4.13;;;;;;;8.66;85.49;100388.44;5050524;28;20239;-79
2020/12/23 01:28:50;;;;;;;5.53;4.27;;;;;;;8.59;85.30;100378.97;5046598;28;20210;-79
2020/12/23 01:31:17;;;;;;;4.67;3.70;;;;;;;8.57;85.65;100380.72;5050177;28;20319;-79
2020/12/23 01:33:43;;;;;;;3.33;3.10;;;;;;;8.56;85.91;100376.38;5050388;28;20603;-79
2020/12/23 01:36:09;;;;;;;3.47;3.20;;;;;;;8.51;85.55;100373.00;5045905;28;20596;-79
2020/12/23 01:38:35;;;;;;;5.20;4.70;;;;;;;8.52;85.39;100369.50;5047819;28;20629;-79
2020/12/23 01:41:04;;;;;;;5.70;4.50;;;;;;;8.54;84.69;100362.53;5047986;28;20660;-79
2020/12/23 01:43:30;;;;;;;6.27;5.23;;;;;;;8.61;84.87;100364.19;5046377;28;20222;-79
2020/12/23 01:45:56;;;;;;;5.43;4.93;;;;;;;8.67;85.02;100363.25;5049866;28;20221;-79
2020/12/23 01:48:25;;;;;;;4.90;4.30;;;;;;;8.68;84.88;100355.44;5047545;28;20305;-79
2020/12/23 01:50:51;;;;;;;5.23;4.67;;;;;;;8.73;84.95;100364.03;5047312;28;20204;-79
2020/12/23 01:53:18;;;;;;;6.30;4.60;;;;;;;8.77;84.93;100356.19;5052327;28;20234;-79
2020/12/23 01:55:45;;;;;;;7.23;5.37;;;;;;;8.74;84.98;100357.06;5046389;28;20215;-79
2020/12/23 01:58:11;;;;;;;6.33;5.83;;;;;;;8.74;84.73;100360.56;5047947;28;20202;-79
2020/12/23 02:00:37;;;;;;;6.23;5.63;;;;;;;8.77;84.64;100370.06;5049194;28;20249;-78
2020/12/23 02:03:05;;;;;;;6.53;6.00;;;;;;;8.71;85.08;100354.53;5036734;28;20200;-79
2020/12/23 02:05:31;;;;;;;7.87;7.17;;;;;;;8.75;84.69;100351.00;5047890;28;20200;-79
2020/12/23 02:07:57;;;;;;;7.73;6.57;;;;;;;8.68;84.71;100350.22;5053027;28;20208;-79
2020/12/23 02:10:23;;;;;;;8.70;7.90;;;;;;;8.65;85.00;100350.25;5038154;28;20607;-79
2020/12/23 02:12:49;;;;;;;7.57;6.87;;;;;;;8.68;85.19;100350.22;5035189;28;20221;-79
2020/12/23 02:15:16;;;;;;;9.47;7.47;;;;;;;8.68;84.64;100349.34;5038576;28;20243;-79
2020/12/23 02:17:42;;;;;;;7.13;6.53;;;;;;;8.67;84.89;100339.84;5040320;28;20200;-79
2020/12/23 02:20:09;;;;;;;8.53;7.83;;;;;;;8.72;84.94;100332.81;5047394;28;20288;-79
2020/12/23 02:22:37;;;;;;;7.73;7.00;;;;;;;8.70;84.48;100338.06;5049456;28;20198;-79
2020/12/23 02:25:04;;;;;;;8.53;7.83;;;;;;;8.74;85.04;100338.84;5042218;28;20233;-78
2020/12/23 02:27:30;;;;;;;7.67;6.97;;;;;;;8.76;84.70;100342.34;5046723;28;20604;-79
2020/12/23 02:29:58;;;;;;;7.13;6.50;;;;;;;8.76;84.79;100342.34;5040019;28;20212;-79
2020/12/23 02:32:24;;;;;;;8.03;7.33;;;;;;;8.77;84.58;100344.03;5044437;28;20225;-79
2020/12/23 02:34:51;;;;;;;8.27;7.47;;;;;;;8.75;85.14;100343.19;5051126;28;20219;-79
2020/12/23 02:37:18;;;;;;;8.83;8.13;;;;;;;8.69;84.97;100349.34;5040930;28;20201;-79
2020/12/23 02:39:46;;;;;;;8.07;7.37;;;;;;;8.69;85.21;100354.53;5045544;28;20199;-79
2020/12/23 02:42:13;;;;;;;7.13;6.43;;;;;;;8.73;85.22;100347.56;5045224;28;20204;-79
2020/12/23 02:44:39;;;;;;;10.90;8.23;;;;;;;8.70;85.01;100351.06;5040588;28;20228;-78
2020/12/23 02:47:09;;;;;;;9.10;8.30;;;;;;;8.67;85.50;100352.84;5040910;28;20212;-78
2020/12/23 02:49:34;;;;;;;9.63;8.57;;;;;;;8.62;85.72;100362.44;5048531;28;20206;-79
2020/12/23 02:52:00;;;;;;;9.43;8.47;;;;;;;8.59;86.11;100360.75;5050994;28;20232;-79
2020/12/23 02:54:26;;;;;;;9.63;8.73;;;;;;;8.56;86.40;100360.78;5043216;28;20227;-78
2020/12/23 02:56:53;;;;;;;10.07;9.13;;;;;;;8.62;86.24;100362.44;5044688;28;20680;-79
2020/12/23 02:59:19;;;;;;;15.43;10.73;;;;;;;8.62;86.41;100362.44;5046956;28;20210;-80
2020/12/23 03:01:45;;;;;;;11.50;10.43;;;;;;;8.67;86.30;100355.44;5040123;28;20262;-78
2020/12/23 03:04:11;;;;;;;11.93;10.90;;;;;;;8.64;86.24;100351.16;5042002;28;20705;-79
2020/12/23 03:06:37;;;;;;;12.20;10.37;;;;;;;8.63;86.68;100344.22;5041339;28;20201;-79
2020/12/23 03:09:05;;;;;;;9.97;9.03;;;;;;;8.62;86.19;100345.13;5035511;28;20622;-79
2020/12/23 03:11:32;;;;;;;9.10;8.30;;;;;;;8.68;85.75;100349.34;5042972;28;20197;-78
2020/12/23 03:13:59;;;;;;;9.63;8.80;;;;;;;8.65;85.93;100352.00;5038761;28;20240;-79
2020/12/23 03:16:25;;;;;;;9.83;8.83;;;;;;;8.63;86.55;100344.22;5047371;28;20203;-79
2020/12/23 03:18:51;;;;;;;9.67;8.77;;;;;;;8.69;85.48;100344.13;5046013;28;20220;-78
2020/12/23 03:21:16;;;;;;;11.07;9.97;;;;;;;8.72;85.47;100344.13;5044230;28;20315;-79
2020/12/23 03:23:42;;;;;;;9.40;8.57;;;;;;;8.78;85.94;100337.09;5052757;28;20335;-79
2020/12/23 03:26:08;;;;;;;9.30;8.43;;;;;;;8.73;85.92;100335.41;5044544;28;20280;-79
2020/12/23 03:28:35;;;;;;;9.77;8.13;;;;;;;8.74;85.25;100323.25;5036651;28;20241;-79
2020/12/23 03:31:03;;;;;;;9.43;8.47;;;;;;;8.75;85.01;100328.44;5049747;28;20559;-79
2020/12/23 03:33:29;;;;;;;9.23;8.37;;;;;;;8.69;85.52;100338.06;5044751;28;20285;-79
2020/12/23 03:35:56;;;;;;;8.60;7.80;;;;;;;8.65;85.43;100341.59;5044395;28;20203;-79
2020/12/23 03:38:22;;;;;;;14.00;11.63;;;;;;;8.43;86.53;100338.41;5050567;28;20211;-79
2020/12/23 03:40:48;;;;;;;12.80;11.50;;;;;;;8.38;87.18;100342.75;5043313;28;20263;-78
2020/12/23 03:43:14;;;;;;;13.23;9.40;;;;;;;8.40;87.22;100323.63;5050696;28;20637;-79
2020/12/23 03:45:41;;;;;;;10.47;9.23;;;;;;;8.49;87.25;100330.53;5050895;28;20602;-78
2020/12/23 03:48:07;;;;;;;17.80;11.53;;;;;;;8.57;86.64;100320.03;5047524;28;20194;-78
2020/12/23 03:50:34;;;;;;;11.53;10.17;;;;;;;8.68;86.11;100318.13;5042755;28;20201;-79
2020/12/23 03:53:00;;;;;;;13.10;11.40;;;;;;;8.74;86.31;100318.03;5053392;28;20228;-79
2020/12/23 03:55:26;;;;;;;11.97;10.77;;;;;;;8.69;86.49;100306.84;5045484;28;20817;-79
2020/12/23 03:57:52;;;;;;;14.40;10.83;;;;;;;8.65;86.40;100302.56;5043024;28;20216;-79
2020/12/23 04:00:17;;;;;;;11.63;10.63;;;;;;;8.59;86.25;100303.50;5049654;28;20203;-79
2020/12/23 04:02:43;;;;;;;11.57;9.67;;;;;;;8.62;85.90;100303.47;5051319;28;20196;-79
2020/12/23 04:05:10;;;;;;;10.70;9.70;;;;;;;8.63;86.02;100306.94;5047357;28;20223;-79
2020/12/23 04:07:36;;;;;;;13.90;9.67;;;;;;;8.64;86.29;100319.03;5055770;28;20207;-79
2020/12/23 04:10:04;;;;;;;11.33;10.23;;;;;;;8.61;85.99;100317.34;5054785;28;20677;-79
2020/12/23 04:12:30;;;;;;;12.83;11.53;;;;;;;8.70;85.95;100317.25;5055826;28;20226;-79
2020/12/23 04:14:56;;;;;;;13.93;12.53;;;;;;;8.68;86.58;100318.13;5054392;28;20236;-79
2020/12/23 04:17:22;;;;;;;11.63;10.47;;;;;;;8.67;86.26;100324.22;5055545;28;20553;-78
2020/12/23 04:19:47;;;;;;;12.10;11.00;;;;;;;8.67;86.72;100321.63;5049978;28;20214;-79
2020/12/23 04:22:14;;;;;;;17.03;11.43;;;;;;;8.68;86.70;100308.59;5058756;28;20225;-78
2020/12/23 04:24:40;;;;;;;12.33;11.10;;;;;;;8.68;86.68;100308.59;5054691;28;20223;-79
2020/12/23 04:27:06;;;;;;;12.67;11.37;;;;;;;8.69;86.37;100305.09;5055786;28;20204;-79
2020/12/23 04:29:32;;;;;;;13.87;11.73;;;;;;;8.72;86.92;100301.59;5051860;28;20254;-79
2020/12/23 04:31:59;;;;;;;11.87;10.53;;;;;;;8.72;86.82;100301.59;5048374;28;20221;-79
2020/12/23 04:34:24;;;;;;;13.10;11.47;;;;;;;8.68;86.53;100295.59;5047395;28;20223;-79
2020/12/23 04:36:51;;;;;;;11.33;10.10;;;;;;;8.72;86.85;100296.38;5054536;28;20263;-79
2020/12/23 04:39:17;;;;;;;17.87;11.90;;;;;;;8.71;86.89;100295.53;5053094;28;20206;-79
2020/12/23 04:41:43;;;;;;;12.10;10.90;;;;;;;8.74;86.88;100292.91;5050677;28;20199;-79
2020/12/23 04:44:09;;;;;;;12.27;10.63;;;;;;;8.76;86.37;100292.88;5045729;28;20269;-79
2020/12/23 04:46:37;;;;;;;14.67;11.03;;;;;;;8.72;86.55;100289.47;5052383;28;20197;-78
2020/12/23 04:49:04;;;;;;;16.47;11.57;;;;;;;8.75;86.40;100304.16;5045396;28;20214;-78
2020/12/23 04:51:32;;;;;;;13.20;11.87;;;;;;;8.71;86.86;100302.50;5052047;28;20558;-79
2020/12/23 04:53:58;;;;;;;14.10;12.13;;;;;;;8.71;86.97;100303.34;5053552;28;20252;-79
2020/12/23 04:56:28;;;;;;;12.57;11.27;;;;;;;8.74;86.71;100292.03;5054487;28;20204;-79
2020/12/23 04:58:55;;;;;;;13.27;11.50;;;;;;;8.75;86.59;100299.81;5048154;28;20201;-78
2020/12/23 05:01:21;;;;;;;11.80;10.37;;;;;;;8.78;86.39;100290.25;5054555;28;20588;-78
2020/12/23 05:03:47;;;;;;;11.73;10.37;;;;;;;8.80;86.62;100289.34;5045838;28;20228;-79
2020/12/23 05:06:13;;;;;;;12.43;11.13;;;;;;;8.80;86.14;100284.16;5055952;28;20211;-80
2020/12/23 05:08:39;;;;;;;13.20;11.43;;;;;;;8.83;86.27;100291.91;5049301;28;20200;-80
2020/12/23 05:11:06;;;;;;;14.13;10.87;;;;;;;8.83;86.25;100289.31;5056953;28;20204;-80
2020/12/23 05:13:33;;;;;;;13.37;11.20;;;;;;;8.81;86.78;100300.63;5054233;28;20235;-80
2020/12/23 05:15:59;;;;;;;15.43;10.93;;;;;;;8.80;86.58;100288.47;5054463;28;20266;-80
2020/12/23 05:18:31;;;;;;;11.70;10.50;;;;;;;8.73;87.04;100285.09;5047051;28;20208;-80
2020/12/23 05:20:57;;;;;;;11.67;10.07;;;;;;;8.80;86.87;100298.88;5056618;28;20549;-80
2020/12/23 05:23:24;;;;;;;14.13;9.67;;;;;;;8.80;86.57;100294.56;5065739;28;20311;-79
2020/12/23 05:25:49;;;;;;;13.10;11.10;;;;;;;8.84;86.96;100291.03;5056965;28;20200;-80
2020/12/23 05:28:16;;;;;;;10.77;9.67;;;;;;;8.86;86.36;100277.97;5064973;28;20277;-78
2020/12/23 05:30:43;;;;;;;10.33;9.30;;;;;;;8.86;86.58;100280.56;5053445;28;20568;-80
2020/12/23 05:33:09;;;;;;;10.50;9.50;;;;;;;8.90;86.09;100274.44;5056364;28;20992;-80
2020/12/23 05:35:36;;;;;;;11.23;10.10;;;;;;;8.86;86.08;100264.97;5056385;28;20203;-79
2020/12/23 05:38:02;;;;;;;11.70;10.50;;;;;;;8.84;86.31;100277.13;5057345;28;20236;-80
2020/12/23 05:40:28;;;;;;;11.47;10.37;;;;;;;8.86;86.19;100271.03;5057050;28;20214;-79
2020/12/23 05:42:58;;;;;;;12.30;10.10;;;;;;;8.83;86.12;100268.47;5050002;28;20797;-80
2020/12/23 05:45:26;;;;;;;11.70;10.53;;;;;;;8.85;86.33;100268.47;5055755;28;20716;-80
2020/12/23 05:47:54;;;;;;;12.57;10.80;;;;;;;8.86;86.04;100265.84;5050024;28;20200;-78
2020/12/23 05:50:21;;;;;;;11.23;10.13;;;;;;;8.81;86.08;100269.38;5056415;28;20204;-79
2020/12/23 05:52:47;;;;;;;11.53;10.20;;;;;;;8.79;86.32;100268.56;5042273;28;20706;-80
2020/12/23 05:55:15;;;;;;;12.17;10.97;;;;;;;8.82;86.36;100258.97;5054117;28;20228;-80
2020/12/23 05:57:42;;;;;;;13.07;11.73;;;;;;;8.78;86.01;100262.50;5051510;28;20205;-80
2020/12/23 06:00:07;;;;;;;12.60;11.27;;;;;;;8.81;86.46;100256.38;5056615;28;20670;-80
2020/12/23 06:02:46;;;;;;;12.30;11.10;;;;;;;8.84;85.98;100262.41;5048013;28;20201;-80
2020/12/23 06:05:19;;;;;;;11.97;10.73;;;;;;;8.82;85.65;100274.59;5043233;28;20223;-79
2020/12/23 06:07:48;;;;;;;13.13;11.80;;;;;;;8.85;86.50;100276.28;5042333;28;20576;-80
2020/12/23 06:10:14;;;;;;;13.37;11.73;;;;;;;8.84;86.65;100271.94;5043805;28;20670;-78
2020/12/23 06:12:47;;;;;;;13.40;12.07;;;;;;;8.84;86.06;100270.22;5052587;28;20220;-79
2020/12/23 06:15:16;;;;;;;14.10;12.53;;;;;;;8.87;85.86;100262.34;5046623;28;20708;-80
2020/12/23 06:17:45;;;;;;;13.63;12.27;;;;;;;8.86;86.58;100258.03;5046118;28;20202;-80
2020/12/23 06:20:11;;;;;;;12.60;11.30;;;;;;;8.82;86.37;100261.56;5048624;28;20206;-79
2020/12/23 06:22:41;;;;;;;15.63;12.30;;;;;;;8.90;86.18;100248.41;5051123;28;20258;-79
2020/12/23 06:25:07;;;;;;;15.07;13.67;;;;;;;8.95;86.23;100244.00;5048447;28;20227;-78
2020/12/23 06:27:33;;;;;;;16.23;13.07;;;;;;;8.98;85.71;100240.50;5061836;28;20242;-80
2020/12/23 06:29:59;;;;;;;14.40;13.00;;;;;;;8.93;86.13;100246.63;5054686;28;20549;-79
2020/12/23 06:32:26;;;;;;;14.20;12.80;;;;;;;8.88;86.25;100247.56;5052437;28;20215;-78
2020/12/23 06:34:56;;;;;;;14.60;12.83;;;;;;;8.89;86.98;100242.34;5046335;28;20567;-80
2020/12/23 06:37:23;;;;;;;15.37;12.83;;;;;;;8.89;86.76;100251.91;5054022;28;20201;-78
2020/12/23 06:39:51;;;;;;;14.00;12.63;;;;;;;8.94;86.57;100258.78;5051723;28;20211;-78
2020/12/23 06:42:36;;;;;;;15.23;12.13;;;;;;;9.01;86.14;100258.69;5051442;28;20897;-80
2020/12/23 06:45:13;;;;;;;14.37;12.63;;;;;;;9.01;85.99;100253.47;5054249;28;20229;-78
2020/12/23 06:47:40;;;;;;;16.80;12.50;;;;;;;8.94;86.84;100256.16;5050553;28;20203;-80
2020/12/23 06:50:14;;;;;;;14.27;12.70;;;;;;;8.96;86.37;100263.97;5051854;28;20670;-78
2020/12/23 06:52:45;;;;;;;13.70;12.30;;;;;;;8.97;86.42;100260.47;5051211;28;20267;-80
2020/12/23 06:55:13;;;;;;;14.00;11.80;;;;;;;9.00;86.47;100255.22;5049225;28;20234;-80
2020/12/23 06:57:50;;;;;;;14.80;13.23;;;;;;;9.03;86.39;100255.16;5051028;28;20228;-80
2020/12/23 07:00:34;;;;;;;13.77;12.23;;;;;;;9.02;86.26;100248.25;5052372;28;20250;-80
2020/12/23 07:03:01;;;;;;;13.77;11.87;;;;;;;9.04;86.34;100250.81;5053129;28;20204;-80
2020/12/23 07:05:36;;;;;;;13.50;11.83;;;;;;;9.03;85.99;100254.31;5048575;28;20254;-80
2020/12/23 07:08:04;;;;;;;13.70;12.33;;;;;;;9.01;85.92;100246.50;5049128;28;20218;-80
2020/12/23 07:10:32;;;;;;;13.77;12.37;;;;;;;9.02;86.00;100249.97;5052700;28;20236;-80
2020/12/23 07:13:00;;;;;;;14.30;12.27;;;;;;;9.01;86.60;100256.94;5048469;28;20224;-80
2020/12/23 07:15:27;;;;;;;13.17;11.83;;;;;;;9.02;86.56;100257.78;5050926;28;20227;-80
2020/12/23 07:17:58;;;;;;;12.60;10.87;;;;;;;9.03;86.47;100256.91;5048209;28;20208;-81
2020/12/23 07:20:25;;;;;;;13.87;12.57;;;;;;;9.04;86.35;100261.22;5048867;28;20217;-79
2020/12/23 07:22:52;;;;;;;13.40;12.10;;;;;;;9.03;86.78;100268.19;5048535;28;20209;-81
2020/12/23 07:25:19;;;;;;;15.47;11.93;;;;;;;9.05;86.08;100265.56;5046108;28;20709;-81
2020/12/23 07:27:46;;;;;;;14.00;12.60;;;;;;;9.05;86.05;100256.00;5047970;28;20662;-81
2020/12/23 07:30:12;;;;;;;15.40;13.10;;;;;;;9.06;86.60;100254.28;5051315;28;20211;-81
2020/12/23 07:32:39;;;;;;;15.70;14.07;;;;;;;9.11;86.50;100252.44;5048514;28;20260;-80
2020/12/23 07:35:05;;;;;;;13.83;12.33;;;;;;;9.05;86.41;100240.38;5046268;28;20317;-80
2020/12/23 07:37:37;;;;;;;18.03;13.57;;;;;;;9.09;86.21;100247.25;5044738;28;20201;-80
2020/12/23 07:40:10;;;;;;;17.33;12.80;;;;;;;9.09;86.19;100241.19;5045829;28;20250;-81
2020/12/23 07:42:37;;;;;;;17.43;13.07;;;;;;;9.07;86.46;100241.22;5048065;28;20207;-78
2020/12/23 07:45:04;;;;;;;14.73;13.30;;;;;;;9.06;86.74;100242.09;5045001;28;20220;-80
2020/12/23 07:47:30;;;;;;;19.20;13.53;;;;;;;9.08;86.70;100235.13;5042340;28;20210;-80
2020/12/23 07:50:04;;;;;;;15.53;13.17;;;;;;;9.09;86.33;100229.03;5050352;28;20330;-80
2020/12/23 07:52:31;;;;;;;14.83;12.87;;;;;;;9.10;86.71;100235.13;5049765;28;20222;-79
2020/12/23 07:55:10;;;;;;;14.37;12.93;;;;;;;9.12;86.01;100225.53;5052808;28;20233;-79
2020/12/23 07:57:36;;;;;;;17.40;13.77;;;;;;;9.13;86.23;100222.88;5054538;28;20211;-80
2020/12/23 08:00:05;;;;;;;16.73;14.90;;;;;;;9.16;86.24;100237.59;5054252;28;20816;-80
2020/12/23 08:02:31;;;;;;;17.13;14.53;;;;;;;9.16;86.61;100242.81;5055780;28;20206;-78
2020/12/23 08:04:58;;;;;;;15.87;13.80;;;;;;;9.20;86.05;100226.25;5053433;28;20231;-78
2020/12/23 08:07:24;;;;;;;16.00;13.50;;;;;;;9.10;86.46;100228.16;5054936;28;20204;-79
2020/12/23 08:09:50;;;;;;;17.10;13.90;;;;;;;9.13;86.22;100229.84;5052412;28;20215;-80
2020/12/23 08:12:17;;;;;;;14.90;13.40;;;;;;;9.22;86.52;100226.25;5054841;28;20231;-80
2020/12/23 08:14:43;;;;;;;14.80;13.27;;;;;;;9.18;86.39;100229.75;5047635;28;20232;-80
2020/12/23 08:17:10;;;;;;;13.93;12.53;;;;;;;9.20;86.45;100223.66;5046433;28;20206;-82
2020/12/23 08:19:36;;;;;;;14.27;12.77;;;;;;;9.21;86.20;100212.34;5046165;28;20215;-80
2020/12/23 08:22:11;;;;;;;15.40;12.63;;;;;;;9.20;86.98;100209.78;5048761;28;20197;-81
2020/12/23 08:24:37;;;;;;;18.70;14.00;;;;;;;9.20;87.07;100220.19;5049389;28;20298;-81
2020/12/23 08:27:03;;;;;;;20.60;13.47;;;;;;;9.21;86.89;100214.94;5053697;28;20193;-80
2020/12/23 08:29:30;;;;;;;21.03;14.63;;;;;;;9.19;86.75;100219.31;5056804;28;20253;-80
2020/12/23 08:31:57;;;;;;;14.73;13.20;;;;;;;9.25;86.88;100213.16;5051369;28;20569;-80
2020/12/23 08:34:26;;;;;;;15.40;13.80;;;;;;;9.24;86.63;100204.47;5050865;28;20640;-79
2020/12/23 08:37:42;;;;;;;16.63;13.50;;;;;;;9.26;86.45;100205.31;5053815;28;20200;-80
2020/12/23 08:40:16;;;;;;;13.87;12.33;;;;;;;9.28;86.03;100205.28;5044654;28;20248;-80
2020/12/23 08:42:50;;;;;;;15.20;12.00;;;;;;;9.24;86.40;100212.28;5052341;28;20207;-81
2020/12/23 08:45:21;;;;;;;15.03;13.47;;;;;;;9.24;86.34;100208.84;5057214;28;20220;-79
2020/12/23 08:47:49;;;;;;;15.03;13.50;;;;;;;9.23;86.07;100199.28;5053243;28;20204;-78
2020/12/23 08:50:17;;;;;;;17.33;13.17;;;;;;;9.25;86.16;100202.72;5052925;28;20573;-79
2020/12/23 08:52:46;;;;;;;16.43;13.47;;;;;;;9.24;86.27;100199.28;5052578;28;20221;-80
2020/12/23 08:55:17;;;;;;;16.23;12.20;;;;;;;9.26;86.17;100200.09;5056375;28;20704;-80
2020/12/23 08:57:44;;;;;;;16.83;14.80;;;;;;;9.28;86.13;100202.69;5061768;28;20232;-79
2020/12/23 09:00:24;;;;;;;17.77;13.70;;;;;;;9.28;86.69;100192.28;5058502;28;20207;-80
2020/12/23 09:02:50;;;;;;;15.53;13.37;;;;;;;9.28;86.44;100208.75;5056066;28;20219;-79
2020/12/23 09:05:21;;;;;;;15.33;13.73;;;;;;;9.35;86.23;100204.28;5059819;28;20220;-80
2020/12/23 09:07:47;;;;;;;23.73;20.93;;;;;;;9.36;86.46;100200.81;5052778;28;20263;-79
2020/12/23 09:10:23;;;;;;;19.60;17.00;;;;;;;9.37;86.70;100202.50;5055443;28;20215;-80
2020/12/23 09:13:07;;;;;;;14.83;13.30;;;;;;;9.38;86.23;100199.03;5054272;28;20220;-80
2020/12/23 09:15:36;;;;;;;17.07;13.67;;;;;;;9.38;86.75;100201.63;5054265;28;20417;-80
2020/12/23 09:21:18;;;;;;;17.47;13.10;;;;;;;9.37;87.01;100202.50;5054466;28;20205;-80
2020/12/23 09:23:44;;;;;;;18.47;12.83;;;;;;;9.38;86.56;100208.59;5053622;28;20229;-79
2020/12/23 09:26:16;;;;;;;14.67;13.13;;;;;;;9.38;86.49;100198.19;5055659;28;20287;-79
2020/12/23 09:28:42;;;;;;;15.60;13.27;;;;;;;9.40;86.97;100196.41;5058722;28;20206;-81
2020/12/23 09:31:08;;;;;;;17.40;13.33;;;;;;;9.42;87.41;100184.22;5057034;28;20254;-81
2020/12/23 09:33:40;;;;;;;17.10;13.53;;;;;;;9.49;87.60;100176.25;5050390;28;20589;-80
2020/12/23 09:36:08;;;;;;;15.67;13.13;;;;;;;9.50;87.60;100177.09;5052832;28;20201;-80
2020/12/23 09:38:35;;;;;;;14.60;13.07;;;;;;;9.56;86.93;100170.94;5049818;28;20218;-79
2020/12/23 09:41:02;;;;;;;21.50;14.60;;;;;;;9.61;87.46;100171.69;5058951;28;20215;-78
2020/12/23 09:43:30;;;;;;;17.37;14.57;;;;;;;9.65;87.38;100163.78;5052588;28;20233;-79
2020/12/23 09:45:58;;;;;;;15.63;13.93;;;;;;;9.67;87.26;100156.81;5057140;28;20197;-80
2020/12/23 09:48:25;;;;;;;19.60;14.77;;;;;;;9.73;87.43;100158.41;5056939;28;20662;-80
2020/12/23 09:50:52;;;;;;;20.07;14.33;;;;;;;9.80;87.30;100154.78;5057343;28;20220;-79
2020/12/23 09:53:19;;;;;;;19.90;14.57;;;;;;;9.82;87.32;100153.00;5049025;28;20219;-80
2020/12/23 09:55:46;;;;;;;19.53;15.07;;;;;;;9.87;86.91;100152.91;5053815;28;20204;-80
2020/12/23 09:58:13;;;;;;;17.20;14.90;;;;;;;9.83;86.93;100151.25;5062452;28;20220;-80
2020/12/23 10:00:40;;;;;;;17.90;14.67;;;;;;;9.83;86.96;100144.31;5050726;28;20201;-80
2020/12/23 10:03:07;;;;;;;15.80;14.07;;;;;;;9.88;87.07;100144.22;5055751;28;20201;-79
2020/12/23 10:05:33;;;;;;;16.00;14.13;;;;;;;9.89;87.24;100140.69;5058290;28;20228;-79
2020/12/23 10:07:59;;;;;;;22.93;15.17;;;;;;;9.92;86.54;100125.84;5050981;28;20202;-80
2020/12/23 10:10:25;;;;;;;16.67;14.93;;;;;;;9.95;86.42;100117.13;5051670;28;20208;-80
2020/12/23 10:12:52;;;;;;;18.73;15.70;;;;;;;9.97;86.42;100114.47;5052576;28;20243;-80
2020/12/23 10:15:18;;;;;;;17.03;15.13;;;;;;;9.99;86.66;100103.13;5054159;28;20240;-80
2020/12/23 10:17:44;;;;;;;15.43;13.73;;;;;;;10.02;86.85;100097.84;5055345;28;20268;-80
2020/12/23 10:20:10;;;;;;;17.13;15.33;;;;;;;10.02;86.74;100090.00;5056196;28;20200;-79
2020/12/23 10:22:36;;;;;;;19.10;15.10;;;;;;;10.01;86.98;100085.69;5055497;28;20205;-79
2020/12/23 10:25:03;;;;;;;18.03;14.53;;;;;;;10.08;87.28;100083.81;5055071;28;20220;-79
2020/12/23 10:27:29;;;;;;;15.87;14.27;;;;;;;10.12;86.82;100077.63;5058039;28;20216;-79
2020/12/23 10:29:55;;;;;;;15.53;13.80;;;;;;;10.22;86.52;100075.66;5061476;28;20209;-78
2020/12/23 10:32:21;;;;;;;15.47;13.97;;;;;;;10.26;85.91;100077.31;5057875;28;20228;-80
2020/12/23 10:34:47;;;;;;;19.67;14.27;;;;;;;10.29;86.22;100069.41;5056754;28;20320;-79
2020/12/23 10:37:13;;;;;;;16.83;15.00;;;;;;;10.27;86.21;100074.66;5061993;28;20205;-78
2020/12/23 10:39:39;;;;;;;17.63;13.93;;;;;;;10.30;86.08;100076.38;5056995;28;20235;-80
2020/12/23 10:42:05;;;;;;;14.93;13.33;;;;;;;10.33;85.84;100065.88;5052401;28;20205;-79
2020/12/23 10:44:31;;;;;;;17.03;13.90;;;;;;;10.39;85.76;100067.47;5053067;28;20635;-76
2020/12/23 10:46:59;;;;;;;16.20;14.50;;;;;;;10.43;85.67;100053.47;5051745;28;20697;-78
2020/12/23 10:49:26;;;;;;;13.10;11.90;;;;;;;10.48;85.51;100041.16;5046179;28;20208;-79
2020/12/23 10:51:53;;;;;;;14.67;13.17;;;;;;;10.50;85.59;100042.84;5059248;28;20238;-79
2020/12/23 10:54:19;;;;;;;15.47;13.60;;;;;;;10.49;85.93;100037.66;5051289;28;20228;-78
2020/12/23 10:56:46;;;;;;;16.03;14.33;;;;;;;10.53;86.03;100028.84;5055250;28;20685;-78
2020/12/23 10:59:12;;;;;;;19.88;17.23;;;;;;;10.57;86.29;100035.69;5062556;28;20473;-79
2020/12/23 11:01:38;;;;;;;15.13;13.23;;;;;;;10.58;85.99;100024.34;5061735;28;20223;-79
2020/12/23 11:04:05;;;;;;;18.57;13.47;;;;;;;10.59;85.41;100020.88;5061613;28;20246;-75
2020/12/23 11:06:31;;;;;;;16.87;15.30;;;;;;;10.63;84.93;100017.28;5062441;28;20522;-78
2020/12/23 11:08:57;;;;;;;17.83;14.30;;;;;;;10.60;84.98;100013.88;5057450;28;20585;-78
2020/12/23 11:11:23;;;;;;;17.20;14.03;;;;;;;10.63;85.69;100014.66;5058518;28;20219;-79
2020/12/23 11:16:53;;;;;;;14.97;13.40;;;;;;;10.57;85.60;100009.59;5033262;28;20222;-80
2020/12/23 11:19:20;;;;;;;20.50;14.00;;;;;;;10.53;85.87;100010.59;5052315;28;20566;-80
2020/12/23 11:21:46;;;;;;;15.57;13.77;;;;;;;10.55;86.92;100011.41;5051860;28;20207;-81
2020/12/23 11:24:12;;;;;;;14.50;13.10;;;;;;;10.57;86.94;100001.78;5051493;28;20603;-81
2020/12/23 11:26:43;;;;;;;13.83;12.47;;;;;;;10.60;87.20;99990.38;5048893;28;20662;-81
2020/12/23 11:29:09;;;;;;;13.63;11.63;;;;;;;10.62;86.90;99992.06;5048518;28;20205;-81